logo
Search for airport 
image banner adimage banner adimage banner ad
image banner ad

EDMB - Biberach A.D.Riss

Located in Biberach, Germany

ICAO - EDMB, IATA -

Data provided by Airmate  

General information

Coordinates: N48°6'40" E9°45'46"
Elevation is 1903 feet MSL.
Magnetic variation is 3.0000° East
View others Airports in Baden-Württemberg

Operational data

Special qualification required
Current time UTC:
Current local time:
Weather at : ETHL - Laupheim ( 16 km )
METAR: ETHL 290720Z 23005KT 9999 FEW110 13/11 Q1022 BLU+BLU+
TAF: TAF ETHL 290719Z 2908/2917 23005KT 9999 NSW FEW110
View NOTAMs / SUP AIP / TFR affecting this airport [VIEW]
Communications frequencies: [VIEW]

Runways:

RWY identifierQFULength (ft)Width (ft)SurfaceLDA (ft)
0440°321575ASPH2559
22220°321575ASPH3215

Airport contact information

Address: Biberach Germany

Other aviation service providers

Aviation club (not for profit)

Motorflug Lsv Biberach E.V.

Motorflug Lsv Biberach E.V.
thomas.nonn@edmb.de+490735129734

Satellite view of EDMB